sensor_id;sensor_type;location;lat;lon;timestamp;pressure;altitude;pressure_sealevel;temperature;humidity
8894;BME280;4483;48.622;9.230;2022-12-07T00:01:04;97937.47;;;4.60;100.00
8894;BME280;4483;48.622;9.230;2022-12-07T00:03:30;97929.81;;;4.60;100.00
8894;BME280;4483;48.622;9.230;2022-12-07T00:05:57;97938.28;;;4.62;100.00
8894;BME280;4483;48.622;9.230;2022-12-07T00:08:24;97932.34;;;4.62;100.00
8894;BME280;4483;48.622;9.230;2022-12-07T00:10:50;97937.41;;;4.63;100.00
8894;BME280;4483;48.622;9.230;2022-12-07T00:13:18;97929.75;;;4.63;100.00
8894;BME280;4483;48.622;9.230;2022-12-07T00:15:45;97930.59;;;4.64;100.00
8894;BME280;4483;48.622;9.230;2022-12-07T00:18:12;97933.94;;;4.67;100.00
8894;BME280;4483;48.622;9.230;2022-12-07T00:20:38;97932.28;;;4.66;100.00
8894;BME280;4483;48.622;9.230;2022-12-07T00:23:05;97937.38;;;4.66;100.00
8894;BME280;4483;48.622;9.230;2022-12-07T00:25:31;97928.84;;;4.67;100.00
8894;BME280;4483;48.622;9.230;2022-12-07T00:27:58;97939.91;;;4.68;100.00
8894;BME280;4483;48.622;9.230;2022-12-07T00:30:26;97930.56;;;4.68;100.00
8894;BME280;4483;48.622;9.230;2022-12-07T00:32:53;97933.94;;;4.67;100.00
8894;BME280;4483;48.622;9.230;2022-12-07T00:35:19;97931.41;;;4.67;100.00
8894;BME280;4483;48.622;9.230;2022-12-07T00:37:46;97928.84;;;4.67;100.00
8894;BME280;4483;48.622;9.230;2022-12-07T00:40:13;97929.72;;;4.66;100.00
8894;BME280;4483;48.622;9.230;2022-12-07T00:42:39;97918.72;;;4.63;100.00
8894;BME280;4483;48.622;9.230;2022-12-07T00:45:07;97930.59;;;4.67;100.00
8894;BME280;4483;48.622;9.230;2022-12-07T00:47:35;97928.91;;;4.64;100.00
8894;BME280;4483;48.622;9.230;2022-12-07T00:50:02;97934.03;;;4.63;100.00
8894;BME280;4483;48.622;9.230;2022-12-07T00:52:29;97923.88;;;4.61;100.00
8894;BME280;4483;48.622;9.230;2022-12-07T00:54:56;97921.31;;;4.61;100.00
8894;BME280;4483;48.622;9.230;2022-12-07T00:57:22;97919.59;;;4.60;100.00
8894;BME280;4483;48.622;9.230;2022-12-07T00:59:49;97921.31;;;4.61;100.00
8894;BME280;4483;48.622;9.230;2022-12-07T01:02:16;97916.22;;;4.61;100.00
8894;BME280;4483;48.622;9.230;2022-12-07T01:04:43;97918.75;;;4.61;100.00
8894;BME280;4483;48.622;9.230;2022-12-07T01:07:10;97923.84;;;4.63;100.00
8894;BME280;4483;48.622;9.230;2022-12-07T01:09:37;97915.31;;;4.62;100.00
8894;BME280;4483;48.622;9.230;2022-12-07T01:12:04;97917.88;;;4.62;100.00
8894;BME280;4483;48.622;9.230;2022-12-07T01:14:31;97922.16;;;4.60;100.00
8894;BME280;4483;48.622;9.230;2022-12-07T01:16:57;97920.47;;;4.61;100.00
8894;BME280;4483;48.622;9.230;2022-12-07T01:19:24;97931.53;;;4.61;100.00
8894;BME280;4483;48.622;9.230;2022-12-07T01:21:52;97918.81;;;4.57;100.00
8894;BME280;4483;48.622;9.230;2022-12-07T01:24:18;97923.91;;;4.58;100.00
8894;BME280;4483;48.622;9.230;2022-12-07T01:26:45;97928.16;;;4.59;100.00
8894;BME280;4483;48.622;9.230;2022-12-07T01:29:12;97927.25;;;4.60;100.00
8894;BME280;4483;48.622;9.230;2022-12-07T01:31:38;97928.13;;;4.61;100.00
8894;BME280;4483;48.622;9.230;2022-12-07T01:34:05;97936.63;;;4.61;100.00
8894;BME280;4483;48.622;9.230;2022-12-07T01:36:33;97942.53;;;4.62;100.00
8894;BME280;4483;48.622;9.230;2022-12-07T01:39:04;97940.84;;;4.62;100.00
8894;BME280;4483;48.622;9.230;2022-12-07T01:41:33;97942.53;;;4.62;100.00
8894;BME280;4483;48.622;9.230;2022-12-07T01:44:13;97949.34;;;4.63;100.00
8894;BME280;4483;48.622;9.230;2022-12-07T01:46:41;97940.84;;;4.62;100.00
8894;BME280;4483;48.622;9.230;2022-12-07T01:49:10;97940.00;;;4.62;100.00
8894;BME280;4483;48.622;9.230;2022-12-07T01:51:40;97937.44;;;4.62;100.00
8894;BME280;4483;48.622;9.230;2022-12-07T01:54:10;97928.97;;;4.61;100.00
8894;BME280;4483;48.622;9.230;2022-12-07T01:56:40;97931.53;;;4.61;100.00
8894;BME280;4483;48.622;9.230;2022-12-07T01:59:08;97940.84;;;4.62;100.00
8894;BME280;4483;48.622;9.230;2022-12-07T02:01:34;97944.25;;;4.63;100.00
8894;BME280;4483;48.622;9.230;2022-12-07T02:04:01;97948.47;;;4.64;100.00
8894;BME280;4483;48.622;9.230;2022-12-07T02:06:29;97942.50;;;4.63;100.00
8894;BME280;4483;48.622;9.230;2022-12-07T02:08:56;97940.84;;;4.62;100.00
8894;BME280;4483;48.622;9.230;2022-12-07T02:11:24;97943.44;;;4.61;100.00
8894;BME280;4483;48.622;9.230;2022-12-07T02:13:51;97946.84;;;4.58;100.00
8894;BME280;4483;48.622;9.230;2022-12-07T02:16:25;97947.72;;;4.59;100.00
8894;BME280;4483;48.622;9.230;2022-12-07T02:19:02;97942.63;;;4.57;100.00
8894;BME280;4483;48.622;9.230;2022-12-07T02:21:40;97945.22;;;4.56;100.00
8894;BME280;4483;48.622;9.230;2022-12-07T02:24:30;97945.22;;;4.54;100.00
8894;BME280;4483;48.622;9.230;2022-12-07T02:27:23;97941.91;;;4.49;100.00
8894;BME280;4483;48.622;9.230;2022-12-07T02:29:58;97942.81;;;4.47;100.00
8894;BME280;4483;48.622;9.230;2022-12-07T02:32:34;97936.00;;;4.46;100.00
8894;BME280;4483;48.622;9.230;2022-12-07T02:35:06;97940.25;;;4.45;100.00
8894;BME280;4483;48.622;9.230;2022-12-07T02:37:37;97941.09;;;4.46;100.00
8894;BME280;4483;48.622;9.230;2022-12-07T02:40:10;97934.31;;;4.45;100.00
8894;BME280;4483;48.622;9.230;2022-12-07T02:42:41;97931.78;;;4.43;100.00
8894;BME280;4483;48.622;9.230;2022-12-07T02:45:13;97934.31;;;4.43;100.00
8894;BME280;4483;48.622;9.230;2022-12-07T02:47:41;97938.56;;;4.44;100.00
8894;BME280;4483;48.622;9.230;2022-12-07T02:50:10;97938.53;;;4.46;100.00
8894;BME280;4483;48.622;9.230;2022-12-07T02:52:37;97935.13;;;4.48;100.00
8894;BME280;4483;48.622;9.230;2022-12-07T02:55:04;97935.94;;;4.49;100.00
8894;BME280;4483;48.622;9.230;2022-12-07T02:57:42;97932.53;;;4.50;100.00
8894;BME280;4483;48.622;9.230;2022-12-07T03:00:15;97928.31;;;4.47;100.00
8894;BME280;4483;48.622;9.230;2022-12-07T03:02:51;97926.59;;;4.49;100.00
8894;BME280;4483;48.622;9.230;2022-12-07T03:05:44;97927.44;;;4.50;100.00
8894;BME280;4483;48.622;9.230;2022-12-07T03:08:24;97925.72;;;4.49;100.00
8894;BME280;4483;48.622;9.230;2022-12-07T03:10:58;97920.66;;;4.47;100.00
8894;BME280;4483;48.622;9.230;2022-12-07T03:13:30;97921.53;;;4.46;100.00
8894;BME280;4483;48.622;9.230;2022-12-07T03:16:04;97913.91;;;4.45;100.00
8894;BME280;4483;48.622;9.230;2022-12-07T03:18:36;97916.47;;;4.43;100.00
8894;BME280;4483;48.622;9.230;2022-12-07T03:21:08;97917.34;;;4.42;100.00
8894;BME280;4483;48.622;9.230;2022-12-07T03:23:38;97916.50;;;4.42;100.00
8894;BME280;4483;48.622;9.230;2022-12-07T03:26:09;97910.56;;;4.41;100.00
8894;BME280;4483;48.622;9.230;2022-12-07T03:28:44;97910.56;;;4.40;100.00
8894;BME280;4483;48.622;9.230;2022-12-07T03:31:18;97920.81;;;4.38;100.00
8894;BME280;4483;48.622;9.230;2022-12-07T03:33:51;97909.75;;;4.38;100.00
8894;BME280;4483;48.622;9.230;2022-12-07T03:36:23;97901.28;;;4.37;100.00
8894;BME280;4483;48.622;9.230;2022-12-07T03:38:55;97906.41;;;4.36;100.00
8894;BME280;4483;48.622;9.230;2022-12-07T03:41:26;97908.13;;;4.34;100.00
8894;BME280;4483;48.622;9.230;2022-12-07T03:43:54;97901.34;;;4.31;100.00
8894;BME280;4483;48.622;9.230;2022-12-07T03:46:28;97903.94;;;4.30;100.00
8894;BME280;4483;48.622;9.230;2022-12-07T03:49:01;97902.25;;;4.27;100.00
8894;BME280;4483;48.622;9.230;2022-12-07T03:51:38;97903.09;;;4.29;100.00
8894;BME280;4483;48.622;9.230;2022-12-07T03:54:10;97908.25;;;4.26;100.00
8894;BME280;4483;48.622;9.230;2022-12-07T03:56:40;97911.66;;;4.25;100.00
8894;BME280;4483;48.622;9.230;2022-12-07T03:59:09;97915.06;;;4.24;100.00
8894;BME280;4483;48.622;9.230;2022-12-07T04:01:38;97909.97;;;4.24;100.00
8894;BME280;4483;48.622;9.230;2022-12-07T04:04:07;97905.75;;;4.22;100.00
8894;BME280;4483;48.622;9.230;2022-12-07T04:06:33;97910.84;;;4.22;100.00
8894;BME280;4483;48.622;9.230;2022-12-07T04:09:00;97907.47;;;4.21;100.00
8894;BME280;4483;48.622;9.230;2022-12-07T04:11:27;97907.47;;;4.21;100.00
8894;BME280;4483;48.622;9.230;2022-12-07T04:13:53;97902.38;;;4.20;100.00
8894;BME280;4483;48.622;9.230;2022-12-07T04:16:38;97904.06;;;4.21;100.00
8894;BME280;4483;48.622;9.230;2022-12-07T04:19:05;97893.91;;;4.19;100.00
8894;BME280;4483;48.622;9.230;2022-12-07T04:21:32;97893.13;;;4.16;100.00
8894;BME280;4483;48.622;9.230;2022-12-07T04:23:58;97891.41;;;4.15;100.00
8894;BME280;4483;48.622;9.230;2022-12-07T04:26:25;97897.38;;;4.14;100.00
8894;BME280;4483;48.622;9.230;2022-12-07T04:28:52;97889.72;;;4.12;100.00
8894;BME280;4483;48.622;9.230;2022-12-07T04:31:18;97888.06;;;4.11;100.00
8894;BME280;4483;48.622;9.230;2022-12-07T04:33:46;97892.38;;;4.07;100.00
8894;BME280;4483;48.622;9.230;2022-12-07T04:36:13;97885.59;;;4.05;100.00
8894;BME280;4483;48.622;9.230;2022-12-07T04:38:39;97889.88;;;4.03;100.00
8894;BME280;4483;48.622;9.230;2022-12-07T04:41:06;97895.84;;;4.02;100.00
8894;BME280;4483;48.622;9.230;2022-12-07T04:43:34;97895.88;;;4.00;100.00
8894;BME280;4483;48.622;9.230;2022-12-07T04:46:01;97896.75;;;3.98;100.00
8894;BME280;4483;48.622;9.230;2022-12-07T04:48:28;97896.75;;;3.98;100.00
8894;BME280;4483;48.622;9.230;2022-12-07T04:50:56;97891.66;;;3.98;100.00
8894;BME280;4483;48.622;9.230;2022-12-07T04:53:23;97892.53;;;3.97;100.00
8894;BME280;4483;48.622;9.230;2022-12-07T04:55:50;97885.75;;;3.94;100.00
8894;BME280;4483;48.622;9.230;2022-12-07T04:58:16;97887.50;;;3.91;100.00
8894;BME280;4483;48.622;9.230;2022-12-07T05:00:43;97890.09;;;3.88;100.00
8894;BME280;4483;48.622;9.230;2022-12-07T05:03:10;97884.19;;;3.86;100.00
8894;BME280;4483;48.622;9.230;2022-12-07T05:05:40;97887.63;;;3.82;100.00
8894;BME280;4483;48.622;9.230;2022-12-07T05:08:08;97885.06;;;3.82;100.00
8894;BME280;4483;48.622;9.230;2022-12-07T05:10:34;97885.97;;;3.78;100.00
8894;BME280;4483;48.622;9.230;2022-12-07T05:13:01;97881.81;;;3.72;100.00
8894;BME280;4483;48.622;9.230;2022-12-07T05:15:28;97883.53;;;3.69;100.00
8894;BME280;4483;48.622;9.230;2022-12-07T05:17:54;97886.97;;;3.66;100.00
8894;BME280;4483;48.622;9.230;2022-12-07T05:20:21;97881.09;;;3.61;100.00
8894;BME280;4483;48.622;9.230;2022-12-07T05:22:47;97870.97;;;3.55;100.00
8894;BME280;4483;48.622;9.230;2022-12-07T05:25:16;97875.25;;;3.52;100.00
8894;BME280;4483;48.622;9.230;2022-12-07T05:27:42;97870.28;;;3.43;100.00
8894;BME280;4483;48.622;9.230;2022-12-07T05:30:10;97865.28;;;3.37;100.00
8894;BME280;4483;48.622;9.230;2022-12-07T05:32:36;97861.09;;;3.33;100.00
8894;BME280;4483;48.622;9.230;2022-12-07T05:35:04;97848.41;;;3.27;100.00
8894;BME280;4483;48.622;9.230;2022-12-07T05:37:30;97853.56;;;3.21;100.00
8894;BME280;4483;48.622;9.230;2022-12-07T05:39:57;97854.47;;;3.18;100.00
8894;BME280;4483;48.622;9.230;2022-12-07T05:42:25;97860.44;;;3.16;100.00
8894;BME280;4483;48.622;9.230;2022-12-07T05:44:52;97870.59;;;3.17;100.00
8894;BME280;4483;48.622;9.230;2022-12-07T05:47:18;97862.09;;;3.20;100.00
8894;BME280;4483;48.622;9.230;2022-12-07T05:49:45;97869.66;;;3.23;100.00
8894;BME280;4483;48.622;9.230;2022-12-07T05:52:12;97861.16;;;3.25;100.00
8894;BME280;4483;48.622;9.230;2022-12-07T05:54:38;97862.97;;;3.19;100.00
8894;BME280;4483;48.622;9.230;2022-12-07T05:57:05;97872.19;;;3.27;100.00
8894;BME280;4483;48.622;9.230;2022-12-07T05:59:33;97862.09;;;3.20;99.72
8894;BME280;4483;48.622;9.230;2022-12-07T06:02:01;97871.56;;;3.07;99.72
8894;BME280;4483;48.622;9.230;2022-12-07T06:04:29;97876.75;;;2.98;100.00
8894;BME280;4483;48.622;9.230;2022-12-07T06:06:56;97871.78;;;2.87;100.00
8894;BME280;4483;48.622;9.230;2022-12-07T06:09:24;97885.34;;;2.85;100.00
8894;BME280;4483;48.622;9.230;2022-12-07T06:11:51;97888.81;;;2.78;100.00
8894;BME280;4483;48.622;9.230;2022-12-07T06:14:37;97891.38;;;2.76;100.00
8894;BME280;4483;48.622;9.230;2022-12-07T06:17:04;97893.09;;;2.73;100.00
8894;BME280;4483;48.622;9.230;2022-12-07T06:19:31;97904.97;;;2.72;100.00
8894;BME280;4483;48.622;9.230;2022-12-07T06:21:58;97899.06;;;2.69;100.00
8894;BME280;4483;48.622;9.230;2022-12-07T06:24:25;97897.44;;;2.63;100.00
8894;BME280;4483;48.622;9.230;2022-12-07T06:26:52;97904.22;;;2.61;100.00
8894;BME280;4483;48.622;9.230;2022-12-07T06:29:19;97909.31;;;2.61;100.00
8894;BME280;4483;48.622;9.230;2022-12-07T06:31:47;97911.84;;;2.61;100.00
8894;BME280;4483;48.622;9.230;2022-12-07T06:34:15;97911.84;;;2.61;100.00
8894;BME280;4483;48.622;9.230;2022-12-07T06:36:43;97914.41;;;2.58;100.00
8894;BME280;4483;48.622;9.230;2022-12-07T06:39:10;97918.69;;;2.56;100.00
8894;BME280;4483;48.622;9.230;2022-12-07T06:41:37;97916.97;;;2.55;100.00
8894;BME280;4483;48.622;9.230;2022-12-07T06:44:04;97913.63;;;2.50;100.00
8894;BME280;4483;48.622;9.230;2022-12-07T06:46:31;97914.50;;;2.46;100.00
8894;BME280;4483;48.622;9.230;2022-12-07T06:48:59;97915.31;;;2.51;100.00
8894;BME280;4483;48.622;9.230;2022-12-07T06:51:26;97913.69;;;2.44;100.00
8894;BME280;4483;48.622;9.230;2022-12-07T06:53:52;97911.16;;;2.43;100.00
8894;BME280;4483;48.622;9.230;2022-12-07T06:56:19;97917.94;;;2.45;100.00
8894;BME280;4483;48.622;9.230;2022-12-07T06:58:46;97927.22;;;2.46;100.00
8894;BME280;4483;48.622;9.230;2022-12-07T07:01:15;97925.53;;;2.47;100.00
8894;BME280;4483;48.622;9.230;2022-12-07T07:03:42;97930.59;;;2.48;100.00
8894;BME280;4483;48.622;9.230;2022-12-07T07:06:10;97929.75;;;2.49;100.00
8894;BME280;4483;48.622;9.230;2022-12-07T07:08:38;97930.59;;;2.48;100.00
8894;BME280;4483;48.622;9.230;2022-12-07T07:11:05;97934.00;;;2.49;100.00
8894;BME280;4483;48.622;9.230;2022-12-07T07:13:32;97928.09;;;2.47;100.00
8894;BME280;4483;48.622;9.230;2022-12-07T07:15:59;97924.69;;;2.45;100.00
8894;BME280;4483;48.622;9.230;2022-12-07T07:18:26;97921.28;;;2.46;100.00
8894;BME280;4483;48.622;9.230;2022-12-07T07:20:53;97912.88;;;2.41;100.00
8894;BME280;4483;48.622;9.230;2022-12-07T07:23:22;97914.56;;;2.43;100.00
8894;BME280;4483;48.622;9.230;2022-12-07T07:25:49;97913.69;;;2.44;100.00
8894;BME280;4483;48.622;9.230;2022-12-07T07:28:16;97914.50;;;2.46;100.00
8894;BME280;4483;48.622;9.230;2022-12-07T07:30:42;97919.59;;;2.48;100.00
8894;BME280;4483;48.622;9.230;2022-12-07T07:33:10;97922.09;;;2.52;100.00
8894;BME280;4483;48.622;9.230;2022-12-07T07:35:37;97925.44;;;2.57;100.00
8894;BME280;4483;48.622;9.230;2022-12-07T07:38:04;97930.50;;;2.60;100.00
8894;BME280;4483;48.622;9.230;2022-12-07T07:40:33;97934.69;;;2.66;100.00
8894;BME280;4483;48.622;9.230;2022-12-07T07:42:59;97929.59;;;2.69;100.00
8894;BME280;4483;48.622;9.230;2022-12-07T07:45:26;97938.06;;;2.71;100.00
8894;BME280;4483;48.622;9.230;2022-12-07T07:47:53;97934.66;;;2.72;100.00
8894;BME280;4483;48.622;9.230;2022-12-07T07:50:20;97943.09;;;2.75;100.00
8894;BME280;4483;48.622;9.230;2022-12-07T07:52:47;97938.00;;;2.80;100.00
8894;BME280;4483;48.622;9.230;2022-12-07T07:55:14;97945.56;;;2.84;100.00
8894;BME280;4483;48.622;9.230;2022-12-07T07:57:42;97954.88;;;2.84;100.00
8894;BME280;4483;48.622;9.230;2022-12-07T08:00:11;97964.22;;;2.86;100.00
8894;BME280;4483;48.622;9.230;2022-12-07T08:02:38;97957.41;;;2.88;100.00
8894;BME280;4483;48.622;9.230;2022-12-07T08:05:05;97964.16;;;2.92;100.00
8894;BME280;4483;48.622;9.230;2022-12-07T08:07:32;97957.38;;;2.94;100.00
8894;BME280;4483;48.622;9.230;2022-12-07T08:09:59;97959.00;;;2.98;100.00
8894;BME280;4483;48.622;9.230;2022-12-07T08:12:25;97963.19;;;3.04;100.00
8894;BME280;4483;48.622;9.230;2022-12-07T08:14:53;97961.47;;;3.09;100.00
8894;BME280;4483;48.622;9.230;2022-12-07T08:17:20;97953.78;;;3.12;100.00
8894;BME280;4483;48.622;9.230;2022-12-07T08:19:46;97958.03;;;3.15;100.00
8894;BME280;4483;48.622;9.230;2022-12-07T08:22:13;97957.16;;;3.19;100.00
8894;BME280;4483;48.622;9.230;2022-12-07T08:24:40;97957.06;;;3.25;100.00
8894;BME280;4483;48.622;9.230;2022-12-07T08:27:06;97954.47;;;3.31;100.00
8894;BME280;4483;48.622;9.230;2022-12-07T08:29:33;97962.06;;;3.37;100.00
8894;BME280;4483;48.622;9.230;2022-12-07T08:32:01;97956.88;;;3.43;100.00
8894;BME280;4483;48.622;9.230;2022-12-07T08:34:28;97964.47;;;3.47;100.00
8894;BME280;4483;48.622;9.230;2022-12-07T08:36:54;97966.97;;;3.52;100.00
8894;BME280;4483;48.622;9.230;2022-12-07T08:39:21;97965.22;;;3.58;100.00
8894;BME280;4483;48.622;9.230;2022-12-07T08:41:48;97958.38;;;3.62;100.00
8894;BME280;4483;48.622;9.230;2022-12-07T08:44:14;97962.56;;;3.67;100.00
8894;BME280;4483;48.622;9.230;2022-12-07T08:46:45;97954.81;;;3.75;100.00
8894;BME280;4483;48.622;9.230;2022-12-07T08:49:17;97958.19;;;3.77;100.00
8894;BME280;4483;48.622;9.230;2022-12-07T08:51:46;97964.09;;;3.80;100.00
8894;BME280;4483;48.622;9.230;2022-12-07T08:54:14;97962.34;;;3.84;100.00
8894;BME280;4483;48.622;9.230;2022-12-07T08:56:42;97958.91;;;3.88;100.00
8894;BME280;4483;48.622;9.230;2022-12-07T08:59:10;97949.56;;;3.87;100.00
8894;BME280;4483;48.622;9.230;2022-12-07T09:01:39;97958.00;;;3.92;100.00
8894;BME280;4483;48.622;9.230;2022-12-07T09:04:06;97960.53;;;3.95;100.00
8894;BME280;4483;48.622;9.230;2022-12-07T09:06:34;97948.50;;;4.04;100.00
8894;BME280;4483;48.622;9.230;2022-12-07T09:09:01;97958.56;;;4.14;99.30
8894;BME280;4483;48.622;9.230;2022-12-07T09:11:28;97951.78;;;4.13;99.23
8894;BME280;4483;48.622;9.230;2022-12-07T09:13:55;97956.94;;;4.08;99.04
8894;BME280;4483;48.622;9.230;2022-12-07T09:16:22;97950.97;;;4.09;99.75
8894;BME280;4483;48.622;9.230;2022-12-07T09:18:49;97955.94;;;4.21;99.26
8894;BME280;4483;48.622;9.230;2022-12-07T09:21:15;97951.53;;;4.29;99.12
8894;BME280;4483;48.622;9.230;2022-12-07T09:23:43;97959.03;;;4.41;98.41
8894;BME280;4483;48.622;9.230;2022-12-07T09:26:10;97951.34;;;4.44;97.93
8894;BME280;4483;48.622;9.230;2022-12-07T09:28:37;97953.78;;;4.49;98.12
8894;BME280;4483;48.622;9.230;2022-12-07T09:31:05;97952.88;;;4.56;97.95
8894;BME280;4483;48.622;9.230;2022-12-07T09:33:32;97957.03;;;4.60;97.70
8894;BME280;4483;48.622;9.230;2022-12-07T09:35:59;97951.00;;;4.65;97.39
8894;BME280;4483;48.622;9.230;2022-12-07T09:38:25;97954.31;;;4.72;97.59
8894;BME280;4483;48.622;9.230;2022-12-07T09:40:54;97951.63;;;4.79;96.54
8894;BME280;4483;48.622;9.230;2022-12-07T09:43:22;97946.31;;;4.91;95.77
8894;BME280;4483;48.622;9.230;2022-12-07T09:45:51;97944.50;;;4.99;93.94
8894;BME280;4483;48.622;9.230;2022-12-07T09:48:20;97939.31;;;5.02;92.96
8894;BME280;4483;48.622;9.230;2022-12-07T09:50:48;97937.59;;;5.04;93.82
8894;BME280;4483;48.622;9.230;2022-12-07T09:53:20;97935.75;;;5.13;92.79
8894;BME280;4483;48.622;9.230;2022-12-07T09:55:49;97932.19;;;5.21;91.38
8894;BME280;4483;48.622;9.230;2022-12-07T09:58:20;97923.56;;;5.27;91.42
8894;BME280;4483;48.622;9.230;2022-12-07T10:00:50;97921.72;;;5.35;90.24
8894;BME280;4483;48.622;9.230;2022-12-07T10:03:19;97916.56;;;5.38;88.10
8894;BME280;4483;48.622;9.230;2022-12-07T10:05:47;97914.84;;;5.37;87.50
8894;BME280;4483;48.622;9.230;2022-12-07T10:08:15;97914.91;;;5.34;88.16
8894;BME280;4483;48.622;9.230;2022-12-07T10:10:43;97908.97;;;5.35;88.69
8894;BME280;4483;48.622;9.230;2022-12-07T10:13:11;97914.06;;;5.35;88.89
8894;BME280;4483;48.622;9.230;2022-12-07T10:15:46;97915.75;;;5.36;88.46
8894;BME280;4483;48.622;9.230;2022-12-07T10:18:27;97912.34;;;5.35;88.16
8894;BME280;4483;48.622;9.230;2022-12-07T10:21:05;97913.97;;;5.39;87.38
8894;BME280;4483;48.622;9.230;2022-12-07T10:23:33;97908.97;;;5.35;86.57
8894;BME280;4483;48.622;9.230;2022-12-07T10:26:19;97904.00;;;5.27;86.88
8894;BME280;4483;48.622;9.230;2022-12-07T10:28:46;97907.44;;;5.25;86.95
8894;BME280;4483;48.622;9.230;2022-12-07T10:31:18;97903.84;;;5.33;87.16
8894;BME280;4483;48.622;9.230;2022-12-07T10:33:50;97897.84;;;5.36;86.25
8894;BME280;4483;48.622;9.230;2022-12-07T10:36:21;97890.16;;;5.37;85.53
8894;BME280;4483;48.622;9.230;2022-12-07T10:38:51;97892.72;;;5.37;86.07
8894;BME280;4483;48.622;9.230;2022-12-07T10:41:18;97896.00;;;5.44;85.45
8894;BME280;4483;48.622;9.230;2022-12-07T10:43:52;97892.41;;;5.52;84.80
8894;BME280;4483;48.622;9.230;2022-12-07T10:46:45;97888.75;;;5.65;84.40
8894;BME280;4483;48.622;9.230;2022-12-07T10:53:10;97882.50;;;5.78;83.38
8894;BME280;4483;48.622;9.230;2022-12-07T10:55:53;97876.50;;;5.79;82.42
8894;BME280;4483;48.622;9.230;2022-12-07T10:58:37;97871.34;;;5.84;82.19
8894;BME280;4483;48.622;9.230;2022-12-07T11:01:13;97874.63;;;5.89;81.51
8894;BME280;4483;48.622;9.230;2022-12-07T11:04:07;97870.38;;;5.89;80.59
8894;BME280;4483;48.622;9.230;2022-12-07T11:06:46;97866.94;;;5.90;81.04
8894;BME280;4483;48.622;9.230;2022-12-07T11:09:54;97864.28;;;5.95;80.52
8894;BME280;4483;48.622;9.230;2022-12-07T11:12:29;97862.50;;;5.97;81.08
8894;BME280;4483;48.622;9.230;2022-12-07T11:15:02;97863.28;;;6.02;80.19
8894;BME280;4483;48.622;9.230;2022-12-07T11:17:36;97858.06;;;6.05;80.40
8894;BME280;4483;48.622;9.230;2022-12-07T11:20:19;97854.63;;;6.07;80.25
8894;BME280;4483;48.622;9.230;2022-12-07T11:22:55;97857.22;;;6.06;80.36
8894;BME280;4483;48.622;9.230;2022-12-07T11:25:31;97868.28;;;6.06;80.53
8894;BME280;4483;48.622;9.230;2022-12-07T11:28:10;97858.03;;;6.06;80.37
8894;BME280;4483;48.622;9.230;2022-12-07T11:30:45;97850.41;;;6.05;80.23
8894;BME280;4483;48.622;9.230;2022-12-07T11:33:18;97850.41;;;6.05;80.35
8894;BME280;4483;48.622;9.230;2022-12-07T11:35:57;97847.00;;;6.06;80.16
8894;BME280;4483;48.622;9.230;2022-12-07T11:38:33;97840.94;;;6.08;79.76
8894;BME280;4483;48.622;9.230;2022-12-07T11:41:05;97837.41;;;6.14;79.87
8894;BME280;4483;48.622;9.230;2022-12-07T11:43:47;97827.00;;;6.22;78.08
8894;BME280;4483;48.622;9.230;2022-12-07T11:46:17;97828.69;;;6.23;79.01
8894;BME280;4483;48.622;9.230;2022-12-07T11:48:47;97826.91;;;6.25;78.69
8894;BME280;4483;48.622;9.230;2022-12-07T11:51:20;97813.22;;;6.27;77.77
8894;BME280;4483;48.622;9.230;2022-12-07T11:53:51;97812.50;;;6.22;78.34
8894;BME280;4483;48.622;9.230;2022-12-07T11:56:21;97819.22;;;6.26;78.13
8894;BME280;4483;48.622;9.230;2022-12-07T11:58:52;97810.78;;;6.23;77.91
8894;BME280;4483;48.622;9.230;2022-12-07T12:01:29;97813.13;;;6.30;77.70
8894;BME280;4483;48.622;9.230;2022-12-07T12:04:05;97807.22;;;6.28;77.57
8894;BME280;4483;48.622;9.230;2022-12-07T12:06:35;97817.63;;;6.22;77.73
8894;BME280;4483;48.622;9.230;2022-12-07T12:09:05;97809.13;;;6.20;77.90
8894;BME280;4483;48.622;9.230;2022-12-07T12:14:43;97804.88;;;6.19;77.90
8894;BME280;4483;48.622;9.230;2022-12-07T12:20:19;97804.16;;;6.14;77.56
8894;BME280;4483;48.622;9.230;2022-12-07T12:22:53;97798.19;;;6.13;77.75
8894;BME280;4483;48.622;9.230;2022-12-07T12:25:25;97801.59;;;6.14;77.59
8894;BME280;4483;48.622;9.230;2022-12-07T12:27:55;97799.16;;;6.08;77.88
8894;BME280;4483;48.622;9.230;2022-12-07T12:30:29;97793.28;;;6.06;77.56
8894;BME280;4483;48.622;9.230;2022-12-07T12:33:02;97790.00;;;5.99;78.05
8894;BME280;4483;48.622;9.230;2022-12-07T12:35:31;97790.84;;;6.00;78.22
8894;BME280;4483;48.622;9.230;2022-12-07T12:38:23;97789.94;;;6.02;78.83
8894;BME280;4483;48.622;9.230;2022-12-07T12:40:52;97792.44;;;6.05;78.28
8894;BME280;4483;48.622;9.230;2022-12-07T12:43:45;97787.41;;;6.01;78.88
8894;BME280;4483;48.622;9.230;2022-12-07T12:46:48;97784.75;;;6.05;78.29
8894;BME280;4483;48.622;9.230;2022-12-07T12:49:40;97782.06;;;6.10;78.44
8894;BME280;4483;48.622;9.230;2022-12-07T12:55:17;97785.59;;;6.06;79.03
8894;BME280;4483;48.622;9.230;2022-12-07T12:57:47;97779.59;;;6.07;79.10
8894;BME280;4483;48.622;9.230;2022-12-07T13:00:18;97782.06;;;6.10;79.12
8894;BME280;4483;48.622;9.230;2022-12-07T13:02:50;97784.63;;;6.12;79.70
8894;BME280;4483;48.622;9.230;2022-12-07T13:05:20;97781.25;;;6.09;78.90
8894;BME280;4483;48.622;9.230;2022-12-07T13:07:56;97775.22;;;6.12;79.95
8894;BME280;4483;48.622;9.230;2022-12-07T13:10:45;97757.25;;;6.15;79.47
8894;BME280;4483;48.622;9.230;2022-12-07T13:13:34;97763.94;;;6.21;79.85
8894;BME280;4483;48.622;9.230;2022-12-07T13:16:37;97756.94;;;6.27;79.44
8894;BME280;4483;48.622;9.230;2022-12-07T13:22:35;97754.25;;;6.33;78.76
8894;BME280;4483;48.622;9.230;2022-12-07T13:25:07;97745.66;;;6.34;78.96
8894;BME280;4483;48.622;9.230;2022-12-07T13:27:39;97739.69;;;6.34;78.83
8894;BME280;4483;48.622;9.230;2022-12-07T13:30:14;97740.50;;;6.36;78.65
8894;BME280;4483;48.622;9.230;2022-12-07T13:32:42;97740.44;;;6.39;78.81
8894;BME280;4483;48.622;9.230;2022-12-07T13:35:33;97738.69;;;6.39;78.61
8894;BME280;4483;48.622;9.230;2022-12-07T13:38:02;97735.28;;;6.40;78.83
8894;BME280;4483;48.622;9.230;2022-12-07T13:40:31;97734.38;;;6.41;78.82
8894;BME280;4483;48.622;9.230;2022-12-07T13:43:00;97738.66;;;6.42;78.35
8894;BME280;4483;48.622;9.230;2022-12-07T13:45:29;97727.56;;;6.42;79.04
8894;BME280;4483;48.622;9.230;2022-12-07T13:48:19;97733.53;;;6.42;78.70
8894;BME280;4483;48.622;9.230;2022-12-07T13:50:53;97738.56;;;6.45;78.70
8894;BME280;4483;48.622;9.230;2022-12-07T13:53:21;97731.72;;;6.46;78.71
8894;BME280;4483;48.622;9.230;2022-12-07T13:55:48;97728.31;;;6.45;78.33
8894;BME280;4483;48.622;9.230;2022-12-07T13:58:16;97729.16;;;6.46;78.33